Time;durP1;ratioP1;P1;durP2;ratioP2;P2;SDS_P1;SDS_P2;PMS_P1;PMS_P2;Temp;Humidity;BMP_temperature;BMP_pressure;BME280_temperature;BME280_humidity;BME280_pressure;Samples;Min_cycle;Max_cycle;Signal;HPM_P1;HPM_P2
2022/09/03 00:02:32;;;;;;;14.00;6.05;;;;;;;22.87;55.77;100922.44;4989308;28;20060;-80
2022/09/03 00:05:12;;;;;;;9.43;5.90;;;;;;;23.68;55.44;101054.84;5007013;28;20088;-80
2022/09/03 00:08:13;;;;;;;8.02;5.65;;;;;;;23.17;55.69;100982.41;4989608;28;20402;-80
2022/09/03 00:11:09;;;;;;;7.25;5.05;;;;;;;23.34;55.59;100988.22;4973276;28;20399;-80
2022/09/03 00:13:42;;;;;;;7.15;5.13;;;;;;;23.55;55.37;101022.38;5006905;28;20682;-80
2022/09/03 00:16:14;;;;;;;8.93;4.65;;;;;;;23.04;55.38;100951.59;5006801;28;20041;-80
2022/09/03 00:18:49;;;;;;;6.93;5.20;;;;;;;23.37;55.66;101004.06;4988865;28;20050;-80
2022/09/03 00:21:40;;;;;;;11.93;6.15;;;;;;;22.85;55.86;100930.78;4989234;28;20062;-80
2022/09/03 00:24:12;;;;;;;6.88;5.47;;;;;;;23.39;55.90;101012.81;4989374;28;20065;-80
2022/09/03 00:26:44;;;;;;;7.15;4.90;;;;;;;23.46;56.33;101029.88;4992721;28;20069;-80
2022/09/03 00:29:22;;;;;;;10.38;5.60;;;;;;;23.53;56.53;101041.53;4997227;28;20290;-81
2022/09/03 00:32:03;;;;;;;7.55;5.05;;;;;;;23.34;56.58;101013.44;4998705;28;20050;-80
2022/09/03 00:34:38;;;;;;;5.78;5.28;;;;;;;23.61;56.30;101057.56;4994110;28;20050;-80
2022/09/03 00:37:04;;;;;;;10.93;5.38;;;;;;;23.64;56.31;101062.59;4989606;28;20050;-80
2022/09/03 00:39:37;;;;;;;8.27;5.25;;;;;;;23.64;56.28;101064.44;4974006;28;20145;-80
2022/09/03 00:42:33;;;;;;;7.53;6.05;;;;;;;23.64;55.91;101075.28;4989775;28;20046;-81
2022/09/03 00:45:44;;;;;;;11.40;5.70;;;;;;;23.26;56.09;101013.66;4990985;28;20481;-81
2022/09/03 00:48:25;;;;;;;7.57;5.15;;;;;;;23.65;56.08;101075.06;4965232;28;20057;-81
2022/09/03 00:51:18;;;;;;;10.00;5.38;;;;;;;23.67;55.93;101073.00;4992887;28;20331;-80
2022/09/03 00:53:46;;;;;;;;;;;;;;;23.56;56.59;101083.63;4993320;28;20567;-80
2022/09/03 00:57:11;;;;;;;8.63;5.72;;;;;;;23.43;56.74;101079.06;4992657;28;20261;-81
2022/09/03 00:59:56;;;;;;;7.32;5.70;;;;;;;23.04;56.91;101015.75;4992491;28;20139;-80
2022/09/03 01:02:32;;;;;;;9.27;5.43;;;;;;;23.52;56.83;101098.63;5010106;28;20284;-79
2022/09/03 01:05:05;;;;;;;10.02;5.82;;;;;;;23.54;56.84;101089.25;4992487;28;20050;-80
2022/09/03 01:07:57;;;;;;;6.03;5.40;;;;;;;23.51;57.14;101086.97;4992699;28;20061;-81
2022/09/03 01:10:31;;;;;;;9.93;6.28;;;;;;;23.13;56.80;101027.19;4992824;28;20124;-80
2022/09/03 01:13:22;;;;;;;7.53;6.03;;;;;;;23.23;57.01;101027.63;4992445;28;20054;-80
2022/09/03 01:16:09;;;;;;;;;;;;;;;23.43;57.23;101084.50;4993113;28;20054;-80
2022/09/03 01:19:02;;;;;;;10.95;5.57;;;;;;;23.45;57.04;101079.72;4992338;28;19926;-80
2022/09/03 01:22:06;;;;;;;7.30;4.93;;;;;;;23.32;57.39;101077.00;4992176;28;20076;-80
2022/09/03 01:24:42;;;;;;;7.50;6.00;;;;;;;23.01;57.60;101043.22;4991888;28;20424;-80
2022/09/03 01:27:40;;;;;;;13.60;6.10;;;;;;;22.79;57.37;101002.81;4991857;28;20046;-81
2022/09/03 01:30:17;;;;;;;5.45;4.90;;;;;;;23.35;57.59;101081.97;4992089;28;20046;-81
2022/09/03 01:32:45;;;;;;;11.93;5.63;;;;;;;23.31;57.64;101081.56;4992292;28;20164;-81
2022/09/03 01:35:37;;;;;;;6.30;5.07;;;;;;;23.27;57.98;101084.91;4992076;28;20053;-81
2022/09/03 01:38:32;;;;;;;5.18;4.68;;;;;;;22.83;58.24;101020.28;4990531;28;20061;-81
2022/09/03 01:44:33;;;;;;;7.28;5.93;;;;;;;23.17;58.31;101069.91;5009469;28;20520;-81
2022/09/03 01:47:18;;;;;;;10.75;5.25;;;;;;;23.18;58.60;101085.13;5008024;28;20049;-81
2022/09/03 01:49:58;;;;;;;10.15;6.03;;;;;;;22.88;59.31;101064.84;4991450;28;20081;-80
2022/09/03 01:52:40;;;;;;;9.48;5.93;;;;;;;22.84;59.77;101069.84;4991439;28;20054;-80
2022/09/03 01:55:21;;;;;;;9.13;6.03;;;;;;;22.93;59.60;101084.84;5007666;28;20046;-81
2022/09/03 01:58:01;;;;;;;10.65;5.82;;;;;;;22.90;59.59;101074.44;5008549;28;20065;-80
2022/09/03 02:00:34;;;;;;;10.40;5.82;;;;;;;22.30;59.83;100989.63;5007628;28;20547;-81
2022/09/03 02:03:04;;;;;;;9.93;6.05;;;;;;;22.67;60.03;101061.31;4991152;28;20065;-81
2022/09/03 02:05:33;;;;;;;8.57;6.20;;;;;;;22.04;60.13;100960.59;4990990;28;20437;-81
2022/09/03 02:08:06;;;;;;;6.60;5.60;;;;;;;22.81;59.94;101098.16;4991398;28;20095;-80
2022/09/03 02:10:50;;;;;;;11.80;6.55;;;;;;;22.71;60.62;101081.47;4990747;28;20078;-80
2022/09/03 02:13:24;;;;;;;10.20;5.93;;;;;;;22.74;60.51;101077.53;4991152;28;20136;-80
2022/09/03 02:15:54;;;;;;;10.07;6.63;;;;;;;22.75;60.29;101088.16;5007063;28;20050;-81
2022/09/03 02:18:25;;;;;;;7.55;6.43;;;;;;;22.65;60.45;101071.50;4990752;28;20050;-80
2022/09/03 02:20:54;;;;;;;8.55;5.97;;;;;;;22.65;60.24;101068.78;4990697;28;20060;-80
2022/09/03 02:23:22;;;;;;;15.38;6.30;;;;;;;21.96;60.21;100951.63;4990601;28;20057;-80
2022/09/03 02:25:59;;;;;;;11.00;6.03;;;;;;;22.43;60.30;101019.41;4991399;28;20101;-81
2022/09/03 02:28:28;;;;;;;10.27;6.13;;;;;;;22.53;60.41;101029.84;4990894;28;20077;-80
2022/09/03 02:30:55;;;;;;;6.32;5.72;;;;;;;21.98;60.15;100940.63;5006929;28;20480;-80
2022/09/03 02:33:22;;;;;;;13.35;7.28;;;;;;;22.66;60.38;101062.31;4991157;28;20046;-80
2022/09/03 02:35:49;;;;;;;6.93;6.22;;;;;;;22.69;60.44;101080.84;5013092;28;20104;-81
2022/09/03 02:38:19;;;;;;;11.43;7.03;;;;;;;22.10;59.98;100970.59;5010391;28;20057;-80
2022/09/03 02:40:46;;;;;;;14.23;7.32;;;;;;;22.39;60.21;101028.97;5008046;28;20137;-81
2022/09/03 02:43:34;;;;;;;9.93;7.18;;;;;;;22.43;60.81;101056.44;4990465;28;20148;-80
2022/09/03 02:46:03;;;;;;;16.25;6.95;;;;;;;22.52;60.91;101074.16;4990340;28;20058;-80
2022/09/03 02:48:29;;;;;;;8.85;7.30;;;;;;;22.51;60.43;101058.97;4989832;28;20243;-80
2022/09/03 02:50:56;;;;;;;8.18;6.50;;;;;;;22.50;60.37;101041.03;5006926;28;20440;-80
2022/09/03 02:53:23;;;;;;;6.90;5.90;;;;;;;22.72;60.40;101069.63;5008034;28;20058;-80
2022/09/03 02:55:49;;;;;;;10.55;6.05;;;;;;;22.73;60.67;101068.59;5006744;28;20073;-80
2022/09/03 02:58:16;;;;;;;14.57;7.10;;;;;;;22.50;61.04;101049.16;5006451;28;20072;-80
2022/09/03 03:00:43;;;;;;;7.90;6.68;;;;;;;22.52;61.22;101055.22;4990100;28;20465;-80
2022/09/03 03:03:10;;;;;;;6.47;5.88;;;;;;;22.53;61.71;101068.53;5002786;28;20051;-81
2022/09/03 03:05:49;;;;;;;7.03;5.97;;;;;;;22.33;62.14;101029.75;4987892;28;20144;-80
2022/09/03 03:08:20;;;;;;;9.85;6.35;;;;;;;22.08;62.35;101003.25;4986504;28;20093;-79
2022/09/03 03:10:48;;;;;;;9.20;6.05;;;;;;;22.50;62.02;101058.13;4986237;28;20050;-79
2022/09/03 03:13:15;;;;;;;7.55;6.35;;;;;;;22.35;62.22;101049.34;4986612;28;20300;-80
2022/09/03 03:15:43;;;;;;;9.63;6.63;;;;;;;21.63;62.44;100953.38;5002224;28;20457;-81
2022/09/03 03:18:13;;;;;;;8.23;6.10;;;;;;;21.83;62.82;100986.72;4986466;28;20050;-79
2022/09/03 03:20:42;;;;;;;7.75;6.57;;;;;;;22.33;62.66;101067.63;4985904;28;20486;-79
2022/09/03 03:23:09;;;;;;;10.02;6.00;;;;;;;22.23;62.60;101054.50;4986154;28;20461;-78
2022/09/03 03:25:38;;;;;;;10.90;6.18;;;;;;;22.36;62.52;101065.38;4987391;28;20580;-79
2022/09/03 03:28:05;;;;;;;7.38;6.15;;;;;;;22.23;62.60;101051.78;4986326;28;20046;-80
2022/09/03 03:30:33;;;;;;;7.88;6.13;;;;;;;22.32;62.97;101077.63;4986281;28;20054;-79
2022/09/03 03:33:00;;;;;;;13.95;6.03;;;;;;;22.23;63.19;101073.41;4987560;28;20046;-81
2022/09/03 03:35:27;;;;;;;10.48;6.65;;;;;;;21.54;63.27;100961.63;4986583;28;20054;-81
2022/09/03 03:37:56;;;;;;;8.95;6.10;;;;;;;22.13;63.49;101060.25;4985741;28;20054;-82
2022/09/03 03:40:23;;;;;;;6.78;6.03;;;;;;;21.86;63.89;101020.63;4986050;28;20058;-80
2022/09/03 03:42:49;;;;;;;7.05;5.95;;;;;;;22.20;63.87;101079.25;5002131;28;20045;-80
2022/09/03 03:45:16;;;;;;;7.78;5.75;;;;;;;21.97;64.33;101064.13;4986169;28;20505;-80
2022/09/03 03:47:43;;;;;;;11.57;6.53;;;;;;;21.28;64.25;100951.47;5002144;28;20101;-81
2022/09/03 03:50:10;;;;;;;12.45;7.10;;;;;;;22.07;64.31;101080.00;4985958;28;20058;-81
2022/09/03 03:52:36;;;;;;;7.80;6.85;;;;;;;22.04;64.75;101074.13;4985831;28;20108;-81
2022/09/03 03:55:04;;;;;;;9.65;6.30;;;;;;;21.74;64.44;101025.75;4987208;28;20054;-81
2022/09/03 03:57:31;;;;;;;11.90;6.75;;;;;;;22.00;64.40;101073.72;4985622;28;20058;-81
2022/09/03 03:59:57;;;;;;;8.75;6.80;;;;;;;22.03;64.60;101075.19;4985642;28;20074;-80
2022/09/03 04:02:24;;;;;;;7.78;6.65;;;;;;;21.65;64.64;101006.19;4989935;28;20054;-81
2022/09/03 04:04:51;;;;;;;11.77;6.50;;;;;;;21.48;64.25;100975.09;4993195;28;20141;-81
2022/09/03 04:07:18;;;;;;;10.40;6.90;;;;;;;22.17;63.89;101082.31;5009411;28;20057;-81
2022/09/03 04:09:46;;;;;;;8.57;6.10;;;;;;;22.08;63.91;101051.06;5009356;28;20135;-80
2022/09/03 04:12:12;;;;;;;14.70;7.00;;;;;;;22.18;64.02;101075.88;5009447;28;20069;-81
2022/09/03 04:14:39;;;;;;;7.57;6.70;;;;;;;21.89;63.73;101037.25;5009161;28;20460;-81
2022/09/03 04:17:06;;;;;;;8.57;6.22;;;;;;;21.89;63.69;101042.66;5009377;28;20053;-81
2022/09/03 04:19:37;;;;;;;8.07;6.63;;;;;;;21.91;63.69;101054.09;5009021;28;20532;-81
2022/09/03 04:22:06;;;;;;;9.85;6.38;;;;;;;22.11;63.94;101112.84;4993409;28;20077;-80
2022/09/03 04:24:33;;;;;;;7.43;6.65;;;;;;;21.89;63.61;101071.56;4992773;28;20583;-80
2022/09/03 04:27:00;;;;;;;12.57;8.07;;;;;;;21.74;63.40;101052.78;5008779;28;20413;-81
2022/09/03 04:29:30;;;;;;;15.65;8.40;;;;;;;22.10;63.52;101105.78;4993040;28;20060;-80
2022/09/03 04:34:41;;;;;;;10.98;9.93;;;;;;;21.68;63.59;101075.19;5010259;28;20056;-78
2022/09/03 04:37:09;;;;;;;11.90;10.77;;;;;;;21.83;63.91;101105.63;5008963;28;20069;-80
2022/09/03 04:39:36;;;;;;;14.57;12.20;;;;;;;21.86;63.85;101116.03;5012706;28;20050;-80
2022/09/03 04:42:03;;;;;;;14.63;13.10;;;;;;;21.82;64.27;101120.19;4998649;28;20049;-79
2022/09/03 04:44:30;;;;;;;18.10;12.70;;;;;;;21.79;63.97;101108.94;4993516;28;20049;-78
2022/09/03 04:46:56;;;;;;;15.00;12.35;;;;;;;21.11;64.48;101004.94;4992746;28;20045;-78
2022/09/03 04:49:23;;;;;;;18.17;13.40;;;;;;;21.79;63.98;101108.94;5008536;28;20042;-79
2022/09/03 04:51:50;;;;;;;14.77;13.15;;;;;;;21.83;64.49;101115.63;4992562;28;20140;-80
2022/09/03 04:54:17;;;;;;;18.13;15.82;;;;;;;21.18;64.46;101015.81;5008550;28;20068;-80
2022/09/03 04:56:43;;;;;;;16.05;14.35;;;;;;;21.60;65.04;101086.13;5008573;28;20046;-81
2022/09/03 04:59:10;;;;;;;18.60;13.63;;;;;;;21.72;65.11;101116.97;4991890;28;20058;-81
2022/09/03 05:01:38;;;;;;;16.63;13.85;;;;;;;21.57;65.35;101083.84;5008483;28;20061;-80
2022/09/03 05:04:07;;;;;;;20.30;14.23;;;;;;;20.84;65.41;100966.13;4988579;28;20074;-82
2022/09/03 05:06:35;;;;;;;19.27;13.57;;;;;;;21.65;65.71;101097.19;4988748;28;20490;-80
2022/09/03 05:09:03;;;;;;;17.45;14.57;;;;;;;21.68;65.66;101107.63;4988831;28;20081;-81
2022/09/03 05:11:30;;;;;;;18.30;14.35;;;;;;;21.31;65.86;101040.22;4988723;28;20054;-81
2022/09/03 05:13:59;;;;;;;17.77;15.27;;;;;;;21.25;65.72;101035.59;4989953;28;20355;-81
2022/09/03 05:16:29;;;;;;;17.45;14.15;;;;;;;21.21;65.77;101025.38;4988574;28;20113;-80
2022/09/03 05:18:58;;;;;;;17.98;15.43;;;;;;;21.67;66.13;101108.63;4988948;28;20052;-81
2022/09/03 05:21:29;;;;;;;16.73;14.85;;;;;;;21.53;65.95;101080.69;4988281;28;20179;-81
2022/09/03 05:23:58;;;;;;;20.08;17.58;;;;;;;21.12;65.45;101022.84;4988576;28;20610;-79
2022/09/03 05:26:28;;;;;;;17.50;15.73;;;;;;;21.50;65.07;101071.09;4988521;28;20047;-80
2022/09/03 05:28:57;;;;;;;17.33;15.27;;;;;;;21.55;65.15;101068.69;4988646;28;20042;-80
2022/09/03 05:31:26;;;;;;;19.80;15.95;;;;;;;21.28;64.88;101020.84;4988787;28;20058;-80
2022/09/03 05:33:59;;;;;;;23.35;16.65;;;;;;;21.76;64.60;101099.34;4988335;28;20052;-80
2022/09/03 05:36:29;;;;;;;18.55;15.27;;;;;;;21.86;64.96;101097.13;4988092;28;20046;-80
2022/09/03 05:38:57;;;;;;;22.33;16.20;;;;;;;21.19;64.55;100970.75;4988075;28;20518;-80
2022/09/03 05:41:25;;;;;;;20.48;16.70;;;;;;;22.04;64.32;101101.16;4988023;28;20064;-80
2022/09/03 05:43:59;;;;;;;25.15;14.07;;;;;;;21.88;63.81;101069.91;4981011;28;20050;-81
2022/09/03 05:46:30;;;;;;;19.02;16.52;;;;;;;21.85;63.53;101060.34;4996076;28;20074;-80
2022/09/03 05:49:00;;;;;;;19.25;17.25;;;;;;;21.08;63.68;100934.34;4981777;28;20042;-80
2022/09/03 05:51:27;;;;;;;20.05;16.08;;;;;;;22.04;63.67;101084.94;4979741;28;20290;-82
2022/09/03 05:53:54;;;;;;;16.83;15.13;;;;;;;21.74;63.60;101041.97;4996246;28;20042;-81
2022/09/03 05:56:23;;;;;;;23.83;16.75;;;;;;;21.69;62.79;101015.53;5004110;28;20050;-82
2022/09/03 05:58:52;;;;;;;21.42;18.45;;;;;;;22.09;63.29;101094.16;4988179;28;20061;-80
2022/09/03 06:01:30;;;;;;;19.38;17.25;;;;;;;22.04;64.00;101095.75;4988963;28;20058;-80
2022/09/03 06:04:05;;;;;;;24.42;16.55;;;;;;;21.98;63.48;101067.66;4987547;28;20098;-80
2022/09/03 06:06:34;;;;;;;20.35;16.02;;;;;;;22.11;63.48;101072.28;4987524;28;20506;-80
2022/09/03 06:09:07;;;;;;;19.20;16.23;;;;;;;21.26;63.85;100953.56;4987618;28;20509;-80
2022/09/03 06:11:35;;;;;;;19.30;15.50;;;;;;;22.20;64.00;101108.97;4987362;28;20733;-79
2022/09/03 06:14:05;;;;;;;18.80;15.05;;;;;;;22.18;63.60;101086.69;5003771;28;20250;-80
2022/09/03 06:16:34;;;;;;;19.52;16.08;;;;;;;22.06;63.94;101067.47;5003357;28;20050;-80
2022/09/03 06:19:04;;;;;;;23.38;14.75;;;;;;;22.30;64.44;101116.72;4988793;28;20314;-80
2022/09/03 06:21:31;;;;;;;15.07;13.18;;;;;;;22.18;64.39;101102.91;5003414;28;20500;-80
2022/09/03 06:23:58;;;;;;;15.20;12.23;;;;;;;22.29;64.60;101105.06;5003307;28;20780;-80
2022/09/03 06:26:29;;;;;;;19.65;10.98;;;;;;;21.90;64.44;101057.03;5003633;28;20072;-81
2022/09/03 06:28:57;;;;;;;10.32;9.05;;;;;;;22.01;64.04;101071.84;5003500;28;20225;-79
2022/09/03 06:31:24;;;;;;;13.90;9.38;;;;;;;22.08;64.47;101081.66;5003183;28;20061;-81
2022/09/03 06:33:53;;;;;;;10.80;8.38;;;;;;;22.39;63.86;101110.09;4987142;28;20077;-82
2022/09/03 06:36:21;;;;;;;14.55;8.73;;;;;;;22.47;63.69;101119.91;4987521;28;20058;-80
2022/09/03 06:38:52;;;;;;;12.35;7.80;;;;;;;22.49;64.23;101125.97;4987396;28;20046;-79
2022/09/03 06:41:23;;;;;;;14.68;9.18;;;;;;;22.37;64.02;101102.19;4987247;28;20498;-80
2022/09/03 06:43:58;;;;;;;16.58;8.27;;;;;;;22.42;64.17;101122.41;4989239;28;20054;-80
2022/09/03 06:46:24;;;;;;;11.32;8.20;;;;;;;22.45;64.70;101121.97;4993864;28;20197;-79
2022/09/03 06:48:52;;;;;;;8.85;7.93;;;;;;;22.48;64.21;101121.59;4988486;28;20054;-80
2022/09/03 06:51:21;;;;;;;11.63;9.98;;;;;;;22.50;64.25;101108.69;4987126;28;20046;-80
2022/09/03 06:53:50;;;;;;;18.00;10.25;;;;;;;22.51;64.04;101091.44;4986974;28;20101;-80
2022/09/03 06:56:25;;;;;;;14.45;8.23;;;;;;;22.60;63.49;101103.75;4987722;28;20105;-80
2022/09/03 06:58:54;;;;;;;12.50;10.32;;;;;;;22.54;62.92;101077.50;4988073;28;20077;-81
2022/09/03 07:01:24;;;;;;;10.35;8.90;;;;;;;22.37;62.43;101048.09;4987711;28;20081;-80
2022/09/03 07:03:55;;;;;;;9.68;8.38;;;;;;;22.70;63.15;101096.06;4986306;28;20054;-81
2022/09/03 07:06:24;;;;;;;11.40;8.68;;;;;;;22.72;62.28;101093.13;4986791;28;20054;-80
2022/09/03 07:08:51;;;;;;;9.82;8.70;;;;;;;22.90;61.88;101104.22;4986526;28;20225;-80
2022/09/03 07:11:21;;;;;;;9.55;8.57;;;;;;;22.35;62.55;101016.88;4986417;28;20336;-80
2022/09/03 07:13:50;;;;;;;10.40;8.85;;;;;;;22.88;62.83;101111.72;4986408;28;20278;-80
2022/09/03 07:16:26;;;;;;;14.23;7.57;;;;;;;22.76;62.45;101084.41;4986434;28;20050;-81
2022/09/03 07:18:55;;;;;;;10.45;8.15;;;;;;;23.01;62.00;101119.03;4986138;28;20042;-79
2022/09/03 07:21:24;;;;;;;11.18;8.40;;;;;;;23.21;61.18;101128.03;4986058;28;20050;-80
2022/09/03 07:23:52;;;;;;;12.95;8.00;;;;;;;23.20;60.86;101114.69;4987679;28;20042;-80
2022/09/03 07:26:22;;;;;;;15.65;8.18;;;;;;;23.26;61.07;101135.56;4986534;28;20078;-80
2022/09/03 07:28:50;;;;;;;8.50;7.60;;;;;;;23.07;61.30;101101.97;4986171;28;20058;-80
2022/09/03 07:31:20;;;;;;;11.07;7.80;;;;;;;23.24;60.76;101108.66;4987872;28;20526;-79
2022/09/03 07:33:46;;;;;;;8.50;7.22;;;;;;;23.27;61.37;101095.75;4986050;28;20086;-80
2022/09/03 07:36:15;;;;;;;10.82;7.80;;;;;;;23.34;60.98;101119.06;4985678;28;20050;-79
2022/09/03 07:38:44;;;;;;;12.23;8.15;;;;;;;23.54;60.12;101129.06;4987479;28;20064;-79
2022/09/03 07:41:12;;;;;;;9.52;7.85;;;;;;;23.55;60.05;101130.75;5002254;28;20075;-79
2022/09/03 07:43:54;;;;;;;16.60;9.20;;;;;;;23.51;59.93;101141.16;4986065;28;20050;-79
2022/09/03 07:46:23;;;;;;;10.45;8.63;;;;;;;23.51;59.69;101141.16;5002781;28;20054;-79
2022/09/03 07:48:52;;;;;;;15.77;8.75;;;;;;;23.46;59.78;101139.09;5002330;28;20184;-79
2022/09/03 07:51:25;;;;;;;12.43;9.82;;;;;;;22.79;59.71;101013.66;4986230;28;20136;-78
2022/09/03 07:54:00;;;;;;;12.80;8.82;;;;;;;23.72;59.38;101136.59;5001606;28;20405;-80
2022/09/03 07:56:30;;;;;;;12.15;9.10;;;;;;;23.51;59.39;101114.06;4985684;28;20576;-79
2022/09/03 07:58:58;;;;;;;15.82;10.77;;;;;;;23.66;59.25;101139.06;4987497;28;20053;-80
2022/09/03 08:01:27;;;;;;;18.85;10.98;;;;;;;23.79;59.12;101153.72;4985881;28;20456;-80
2022/09/03 08:03:54;;;;;;;14.98;10.07;;;;;;;23.82;59.15;101148.69;4999047;28;20060;-79
2022/09/03 08:06:23;;;;;;;16.58;10.55;;;;;;;23.89;58.44;101148.69;4989285;28;20133;-80
2022/09/03 08:08:58;;;;;;;17.88;9.63;;;;;;;23.53;58.73;101093.03;4989416;28;20073;-78
2022/09/03 08:11:33;;;;;;;16.17;10.17;;;;;;;23.97;58.53;101144.91;5006688;28;20083;-79
2022/09/03 08:14:08;;;;;;;14.23;9.20;;;;;;;22.79;58.79;100975.75;5006744;28;20058;-80
2022/09/03 08:16:38;;;;;;;10.68;8.75;;;;;;;23.29;59.17;101053.88;4989175;28;20046;-80
2022/09/03 08:19:06;;;;;;;12.40;9.63;;;;;;;23.92;59.08;101163.69;5006405;28;20050;-80
2022/09/03 08:21:33;;;;;;;11.07;9.95;;;;;;;23.38;59.36;101073.47;5005096;28;20141;-80
2022/09/03 08:24:02;;;;;;;17.48;10.75;;;;;;;24.00;59.11;101168.88;4988809;28;20104;-79
2022/09/03 08:26:33;;;;;;;18.55;11.88;;;;;;;24.01;59.23;101174.09;5005425;28;20317;-80
2022/09/03 08:29:00;;;;;;;;;;;;;;;24.19;58.13;101169.91;4989032;28;20046;-80
2022/09/03 08:31:28;;;;;;;13.02;9.82;;;;;;;24.10;58.42;101156.56;5006562;28;19953;-80
2022/09/03 08:33:58;;;;;;;12.82;9.32;;;;;;;24.22;58.30;101153.19;4988824;28;20084;-80
2022/09/03 08:36:28;;;;;;;13.00;9.07;;;;;;;24.51;57.55;101163.53;4988975;28;20103;-80
2022/09/03 08:38:57;;;;;;;13.48;9.82;;;;;;;24.28;57.29;101114.38;4988743;28;20472;-79
2022/09/03 08:41:54;;;;;;;13.45;9.57;;;;;;;24.09;57.22;101097.94;4988611;28;20553;-80
2022/09/03 08:44:29;;;;;;;10.27;9.20;;;;;;;24.45;56.97;101142.66;4989066;28;20103;-81
2022/09/03 08:46:58;;;;;;;11.43;8.05;;;;;;;24.58;57.25;101176.25;4990812;28;20057;-80
2022/09/03 08:49:36;;;;;;;9.77;7.78;;;;;;;24.21;57.35;101118.97;5011391;28;20053;-81
2022/09/03 08:52:19;;;;;;;9.65;7.75;;;;;;;24.59;57.44;101175.19;4998433;28;20046;-79
2022/09/03 08:54:48;;;;;;;13.43;8.45;;;;;;;24.73;57.04;101195.81;5015493;28;20057;-81
2022/09/03 08:57:17;;;;;;;15.13;8.48;;;;;;;24.77;57.11;101194.34;5012310;28;20146;-81
2022/09/03 08:59:44;;;;;;;8.73;7.70;;;;;;;24.60;57.11;101176.88;4993165;28;20283;-80
2022/09/03 09:02:24;;;;;;;10.02;8.63;;;;;;;24.78;57.33;101193.28;4991853;28;20383;-80
2022/09/03 09:05:05;;;;;;;9.17;8.07;;;;;;;24.84;57.20;101167.16;4992200;28;20050;-81
2022/09/03 09:07:49;;;;;;;10.10;8.50;;;;;;;24.67;57.17;101126.13;5008288;28;20501;-79
2022/09/03 09:10:29;;;;;;;8.90;7.80;;;;;;;25.08;56.75;101179.97;4992242;28;20381;-79
2022/09/03 09:13:04;;;;;;;11.48;8.32;;;;;;;25.06;56.84;101189.41;5008093;28;20083;-80
2022/09/03 09:15:45;;;;;;;14.98;8.57;;;;;;;25.00;57.33;101192.97;4991932;28;20061;-80
2022/09/03 09:18:31;;;;;;;9.93;8.10;;;;;;;25.08;57.38;101190.00;5009167;28;20077;-80
2022/09/03 09:21:27;;;;;;;11.13;8.05;;;;;;;25.21;57.12;101195.38;5009084;28;20050;-80
2022/09/03 09:24:02;;;;;;;12.73;8.82;;;;;;;25.35;56.70;101190.69;4991869;28;20116;-81
2022/09/03 09:26:29;;;;;;;17.05;8.60;;;;;;;25.32;56.84;101159.38;4991888;28;20057;-80
2022/09/03 09:29:01;;;;;;;13.25;7.70;;;;;;;25.25;56.65;101142.28;4991346;28;20057;-80
2022/09/03 09:31:29;;;;;;;17.40;8.65;;;;;;;25.52;56.58;101185.56;4991880;28;20052;-79
2022/09/03 09:34:14;;;;;;;10.27;8.02;;;;;;;25.35;56.67;101172.50;5002730;28;20490;-80
2022/09/03 09:36:47;;;;;;;8.63;7.60;;;;;;;25.54;56.08;101175.28;5007689;28;20049;-80
2022/09/03 09:39:17;;;;;;;10.10;7.53;;;;;;;25.42;56.39;101152.59;4991538;28;20128;-80
2022/09/03 09:42:16;;;;;;;10.55;8.27;;;;;;;24.65;56.43;101035.91;5009104;28;20478;-80
2022/09/03 09:44:43;;;;;;;9.18;7.53;;;;;;;25.50;56.55;101165.91;4978511;28;20053;-79
2022/09/03 09:47:33;;;;;;;14.95;7.22;;;;;;;25.74;56.61;101177.84;4991577;28;20061;-81
2022/09/03 09:50:01;;;;;;;9.38;7.75;;;;;;;25.44;55.81;101110.56;5008824;28;20656;-80
2022/09/03 09:52:30;;;;;;;8.52;7.72;;;;;;;25.78;55.71;101174.44;4990930;28;20049;-80
2022/09/03 09:55:15;;;;;;;12.30;7.82;;;;;;;25.65;56.04;101168.28;4991270;28;20046;-80
2022/09/03 09:57:41;;;;;;;10.93;7.85;;;;;;;25.67;56.35;101164.28;4990561;28;20111;-80
2022/09/03 10:00:16;;;;;;;10.82;6.75;;;;;;;25.52;56.40;101123.84;4990833;28;20050;-80
2022/09/03 10:02:53;;;;;;;9.48;7.70;;;;;;;25.71;56.12;101157.38;4988063;28;20124;-80
2022/09/03 10:05:21;;;;;;;12.95;7.70;;;;;;;25.72;56.17;101161.72;5004035;28;20121;-80
2022/09/03 10:07:59;;;;;;;10.77;7.68;;;;;;;25.51;56.26;101129.50;4990664;28;20050;-80
2022/09/03 10:10:28;;;;;;;15.00;7.82;;;;;;;25.13;56.35;101062.50;4991030;28;20049;-81
2022/09/03 10:13:01;;;;;;;9.30;7.78;;;;;;;25.59;56.60;101145.56;4990756;28;20065;-80
2022/09/03 10:15:32;;;;;;;13.40;8.35;;;;;;;25.53;56.96;101157.31;5007214;28;20050;-80
2022/09/03 10:18:07;;;;;;;14.23;7.85;;;;;;;25.51;56.99;101145.81;4990796;28;20050;-79
2022/09/03 10:20:43;;;;;;;8.90;7.88;;;;;;;25.62;57.06;101168.75;4991088;28;20056;-80
2022/09/03 10:23:24;;;;;;;12.20;7.90;;;;;;;25.57;56.51;101150.38;4990705;28;20050;-81
2022/09/03 10:26:03;;;;;;;9.40;8.32;;;;;;;25.71;56.72;101178.28;4990619;28;20054;-80
2022/09/03 10:28:30;;;;;;;8.77;7.88;;;;;;;25.57;56.93;101161.25;4990499;28;20068;-82
2022/09/03 10:31:16;;;;;;;8.10;7.30;;;;;;;25.62;56.81;101164.13;4990576;28;20046;-80
2022/09/03 10:33:54;;;;;;;13.75;8.98;;;;;;;25.19;57.41;101126.84;4990479;28;20085;-81
2022/09/03 10:36:27;;;;;;;10.20;9.23;;;;;;;25.43;57.40;101159.69;5006185;28;20127;-80
2022/09/03 10:39:20;;;;;;;12.18;9.40;;;;;;;25.39;57.55;101164.75;4990309;28;20119;-81
2022/09/03 10:42:05;;;;;;;12.02;8.23;;;;;;;25.21;57.77;101123.91;4990014;28;20248;-80
2022/09/03 10:45:11;;;;;;;9.43;8.20;;;;;;;25.43;57.88;101167.84;5006292;28;20081;-80
2022/09/03 10:48:04;;;;;;;10.35;8.98;;;;;;;25.36;58.54;101174.16;4978857;28;20045;-80
2022/09/03 10:50:47;;;;;;;13.40;8.57;;;;;;;24.04;58.35;100951.31;4986929;28;20058;-80
2022/09/03 10:53:26;;;;;;;8.95;8.15;;;;;;;25.46;58.00;101170.94;4986857;28;20093;-80
2022/09/03 10:56:16;;;;;;;8.88;7.97;;;;;;;25.51;57.42;101170.28;4988125;28;20077;-80
2022/09/03 10:59:03;;;;;;;12.45;8.43;;;;;;;25.55;57.77;101168.78;4989793;28;20050;-77
2022/09/03 11:01:48;;;;;;;11.05;7.93;;;;;;;25.51;57.43;101134.94;5008722;28;20046;-80
2022/09/03 11:04:31;;;;;;;17.38;9.27;;;;;;;25.40;57.62;101135.69;4990936;28;20054;-80
2022/09/03 11:07:08;;;;;;;9.55;8.60;;;;;;;25.56;57.77;101167.75;4990673;28;20056;-80
2022/09/03 11:09:37;;;;;;;;;;;;;;;25.52;58.05;101169.25;5006577;28;20496;-80
2022/09/03 11:12:11;;;;;;;12.40;9.25;;;;;;;25.51;57.84;101162.13;4990854;28;19936;-79
2022/09/03 11:14:43;;;;;;;10.80;9.80;;;;;;;25.39;58.20;101153.88;5007304;28;20456;-81
2022/09/03 11:17:20;;;;;;;12.18;9.07;;;;;;;25.56;58.02;101174.03;5009353;28;20076;-80
2022/09/03 11:19:58;;;;;;;11.82;8.98;;;;;;;25.16;57.82;101100.91;5008865;28;20527;-81
2022/09/03 11:22:25;;;;;;;10.32;8.90;;;;;;;25.53;57.60;101165.47;5009148;28;20229;-81
2022/09/03 11:24:59;;;;;;;13.90;9.48;;;;;;;24.99;58.19;101071.81;5009228;28;20128;-81
2022/09/03 11:27:40;;;;;;;12.25;9.05;;;;;;;25.61;58.46;101178.78;5027058;28;20099;-81
2022/09/03 11:30:14;;;;;;;12.05;8.65;;;;;;;25.61;58.64;101173.34;5009468;28;20049;-81
2022/09/03 11:32:48;;;;;;;13.43;9.15;;;;;;;25.52;58.67;101169.25;5009394;28;20060;-81
2022/09/03 11:35:28;;;;;;;10.55;9.52;;;;;;;25.62;58.60;101175.00;5009651;28;20052;-81
2022/09/03 11:37:58;;;;;;;11.02;9.10;;;;;;;25.72;58.21;101180.75;4996377;28;20092;-81
2022/09/03 11:40:31;;;;;;;11.18;9.02;;;;;;;25.66;58.04;101153.66;5005703;28;20136;-79
2022/09/03 11:43:32;;;;;;;13.32;9.45;;;;;;;25.82;57.64;101174.00;4989624;28;20104;-81
2022/09/03 11:46:05;;;;;;;12.27;8.80;;;;;;;25.87;57.74;101180.44;4989930;28;20232;-80
2022/09/03 11:48:49;;;;;;;9.48;8.40;;;;;;;25.58;57.11;101111.25;5005340;28;20648;-81
2022/09/03 11:51:40;;;;;;;9.32;8.27;;;;;;;25.97;56.94;101185.38;4989065;28;20050;-82
2022/09/03 11:54:19;;;;;;;;;;;;;;;25.92;57.30;101187.94;5006211;28;20429;-82
2022/09/03 11:56:48;;;;;;;12.73;8.88;;;;;;;26.01;57.30;101189.31;4989107;28;19922;-82